Time;durP1;ratioP1;P1;durP2;ratioP2;P2;SDS_P1;SDS_P2;PMS_P1;PMS_P2;Temp;Humidity;BMP_temperature;BMP_pressure;BME280_temperature;BME280_humidity;BME280_pressure;Samples;Min_cycle;Max_cycle;Signal;HPM_P1;HPM_P2
2021/07/27 00:01:23;;;;;;;3.23;2.97;;;17.10;99.90;;;;;;469424;252;28826;-71
2021/07/27 00:03:25;;;;;;;3.47;3.17;;;;;;;;;;469407;252;28903;-69
2021/07/27 00:05:27;;;;;;;3.93;3.60;;;;;;;;;;469402;253;27486;-69
2021/07/27 00:07:28;;;;;;;3.40;3.10;;;16.90;99.90;;;;;;469311;253;27488;-69
2021/07/27 00:09:30;;;;;;;3.53;3.23;;;;;;;;;;469386;253;29817;-69
2021/07/27 00:11:33;;;;;;;3.30;3.10;;;;;;;;;;469394;253;27914;-69
2021/07/27 00:13:35;;;;;;;3.20;2.90;;;;;;;;;;469370;253;27997;-69
2021/07/27 00:15:37;;;;;;;4.77;3.30;;;16.80;99.90;;;;;;469403;253;26337;-69
2021/07/27 00:17:41;;;;;;;3.80;3.30;;;;;;;;;;469411;252;28842;-69
2021/07/27 00:19:45;;;;;;;3.00;2.80;;;;;;;;;;469396;253;26381;-70
2021/07/27 00:21:47;;;;;;;3.50;3.20;;;;;;;;;;469403;253;27620;-70
2021/07/27 00:23:49;;;;;;;3.33;3.07;;;;;;;;;;469405;252;28153;-72
2021/07/27 00:25:51;;;;;;;5.00;3.57;;;;;;;;;;469411;253;28121;-71
2021/07/27 00:27:53;;;;;;;3.53;3.23;;;;;;;;;;469413;253;28011;-71
2021/07/27 00:29:55;;;;;;;2.90;2.70;;;;;;;;;;469402;253;27474;-70
2021/07/27 00:31:57;;;;;;;3.33;2.83;;;;;;;;;;469420;253;27465;-71
2021/07/27 00:33:59;;;;;;;2.87;2.67;;;;;;;;;;469418;252;26329;-72
2021/07/27 00:36:04;;;;;;;3.50;3.20;;;;;;;;;;469400;253;27497;-71
2021/07/27 00:38:38;;;;;;;3.23;2.97;;;;;;;;;;469250;253;27564;-71
2021/07/27 00:40:14;;;;;;;3.03;2.73;;;;;;;;;;464076;253;26359;-69
2021/07/27 00:42:17;;;;;;;3.27;3.07;;;;;;;;;;469407;253;26339;-69
2021/07/27 00:44:18;;;;;;;3.83;3.43;;;;;;;;;;469355;253;28065;-70
2021/07/27 00:46:20;;;;;;;4.13;3.37;;;;;;;;;;480748;236;27891;-69
2021/07/27 00:48:21;;;;;;;3.57;3.27;;;16.90;99.90;;;;;;491103;241;27997;-72
2021/07/27 00:50:23;;;;;;;3.13;2.93;;;;;;;;;;491097;241;28890;-69
2021/07/27 00:52:25;;;;;;;2.80;2.60;;;;;;;;;;491096;241;27429;-71
2021/07/27 00:54:27;;;;;;;4.30;3.90;;;;;;;;;;491085;241;27394;-71
2021/07/27 00:56:29;;;;;;;3.07;2.77;;;;;;;;;;491090;241;27495;-71
2021/07/27 00:58:31;;;;;;;3.53;3.23;;;16.80;99.90;;;;;;491081;241;27472;-71
2021/07/27 01:00:33;;;;;;;4.40;2.90;;;;;;;;;;490971;241;28838;-70
2021/07/27 01:02:35;;;;;;;3.30;3.10;;;;;;;;;;491092;241;27400;-70
2021/07/27 01:04:37;;;;;;;3.20;2.90;;;16.70;99.90;;;;;;491071;241;27460;-70
2021/07/27 01:06:39;;;;;;;3.80;3.50;;;;;;;;;;491089;241;27401;-69
2021/07/27 01:08:42;;;;;;;3.47;3.00;;;;;;;;;;491090;241;27389;-71
2021/07/27 01:10:45;;;;;;;3.10;2.90;;;;;;;;;;491069;241;26288;-71
2021/07/27 01:12:47;;;;;;;2.80;2.60;;;;;;;;;;491014;241;26260;-71
2021/07/27 01:14:49;;;;;;;3.07;2.87;;;;;;;;;;491017;241;27480;-72
2021/07/27 01:16:51;;;;;;;3.40;3.10;;;;;;;;;;491051;241;27369;-72
2021/07/27 01:19:08;;;;;;;3.37;3.07;;;;;;;;;;491049;241;27421;-72
2021/07/27 01:37:36;;;;;;;3.47;3.17;;;;;;;;;;491116;242;28860;-71
2021/07/27 01:39:33;;;;;;;3.07;2.87;;;;;;;;;;490006;242;27436;-69
2021/07/27 01:43:34;;;;;;;3.23;3.03;;;;;;;;;;491113;241;27587;-70
2021/07/27 01:45:34;;;;;;;3.43;3.13;;;;;;;;;;491003;242;27531;-69
2021/07/27 01:47:36;;;;;;;3.10;2.90;;;16.60;99.90;;;;;;491099;241;27592;-69
2021/07/27 01:49:40;;;;;;;3.93;3.00;;;;;;;;;;491114;241;27948;-71
2021/07/27 01:51:41;;;;;;;3.53;3.23;;;;;;;;;;491096;241;26929;-69
2021/07/27 01:53:49;;;;;;;3.50;3.20;;;;;;;;;;491124;241;28131;-69
2021/07/27 01:55:47;;;;;;;3.60;3.30;;;;;;;;;;490698;242;26257;-69
2021/07/27 01:57:49;;;;;;;3.80;3.50;;;;;;;;;;491117;241;27397;-72
2021/07/27 01:59:51;;;;;;;3.40;3.10;;;;;;;;;;491110;241;27553;-69
2021/07/27 02:01:54;;;;;;;4.03;3.63;;;;;;;;;;491102;241;27496;-69
2021/07/27 02:03:56;;;;;;;3.23;2.93;;;;;;;;;;491119;241;26368;-71
2021/07/27 02:05:57;;;;;;;3.60;3.30;;;16.70;99.90;;;;;;491132;241;27481;-69
2021/07/27 02:07:59;;;;;;;4.03;3.43;;;16.70;99.90;;;;;;491115;240;28747;-69
2021/07/27 02:10:04;;;;;;;3.97;3.37;;;16.60;99.90;;;;;;491129;240;28811;-69
2021/07/27 02:12:02;;;;;;;4.30;3.90;;;16.70;99.90;;;;;;490855;242;28862;-70
2021/07/27 02:14:03;;;;;;;5.57;3.30;;;16.60;99.90;;;;;;491103;241;28833;-70
2021/07/27 02:16:04;;;;;;;3.37;3.17;;;16.70;99.90;;;;;;491116;240;28942;-69
2021/07/27 02:18:05;;;;;;;4.00;3.27;;;16.70;99.90;;;;;;491065;241;29515;-70
2021/07/27 02:20:07;;;;;;;3.53;3.07;;;;;;;;;;491049;241;29250;-70
2021/07/27 02:22:09;;;;;;;3.90;3.60;;;;;;;;;;491114;241;28020;-69
2021/07/27 02:24:12;;;;;;;3.17;2.97;;;;;;;;;;491114;241;27919;-71
2021/07/27 02:26:15;;;;;;;3.50;3.20;;;;;;;;;;491106;241;26797;-71
2021/07/27 02:28:17;;;;;;;3.73;3.13;;;;;;;;;;491108;241;27996;-70
2021/07/27 02:30:19;;;;;;;3.33;3.03;;;16.60;99.90;;;;;;491124;241;27540;-71
2021/07/27 02:32:21;;;;;;;3.27;2.97;;;;;;;;;;491117;241;27524;-71
2021/07/27 02:34:23;;;;;;;3.60;3.30;;;;;;;;;;491101;241;27443;-71
2021/07/27 02:36:26;;;;;;;3.70;3.40;;;;;;;;;;491124;241;26779;-69
2021/07/27 02:38:30;;;;;;;3.40;3.20;;;;;;;;;;491130;241;26404;-72
2021/07/27 02:40:32;;;;;;;4.00;3.70;;;;;;;;;;491095;237;26339;-69
2021/07/27 02:42:34;;;;;;;4.33;3.67;;;;;;;;;;491136;241;27459;-69
2021/07/27 02:44:36;;;;;;;4.33;3.30;;;;;;;;;;491056;241;27588;-69
2021/07/27 02:46:39;;;;;;;5.03;3.70;;;;;;;;;;491017;241;27415;-69
2021/07/27 02:48:41;;;;;;;3.67;3.37;;;;;;;;;;490987;241;26719;-69
2021/07/27 02:50:46;;;;;;;5.03;3.87;;;;;;;;;;490930;241;27929;-69
2021/07/27 02:52:47;;;;;;;4.00;3.60;;;16.40;99.90;;;;;;490861;241;26241;-71
2021/07/27 02:54:48;;;;;;;3.90;3.50;;;16.50;99.90;;;;;;490981;241;28859;-71
2021/07/27 02:56:50;;;;;;;4.33;3.77;;;;;;;;;;491101;240;28806;-71
2021/07/27 02:58:52;;;;;;;3.60;3.30;;;;;;;;;;491104;241;27483;-71
2021/07/27 03:00:55;;;;;;;3.50;3.20;;;;;;;;;;491109;241;27385;-70
2021/07/27 03:02:57;;;;;;;4.07;3.73;;;;;;;;;;491101;241;26365;-69
2021/07/27 03:04:59;;;;;;;3.53;3.23;;;16.50;99.90;;;;;;491086;241;27504;-72
2021/07/27 03:07:03;;;;;;;4.20;3.80;;;16.50;99.90;;;;;;491099;240;27427;-72
2021/07/27 03:09:15;;;;;;;3.93;3.47;;;;;;;;;;491023;242;28170;-70
2021/07/27 03:11:06;;;;;;;4.10;3.70;;;16.50;99.90;;;;;;490594;242;26769;-69
2021/07/27 03:13:08;;;;;;;3.87;3.57;;;;;;;;;;491111;240;29302;-72
2021/07/27 03:15:10;;;;;;;4.40;3.67;;;;;;;;;;491122;241;27850;-71
2021/07/27 03:17:12;;;;;;;4.90;3.80;;;;;;;;;;491121;241;27389;-70
2021/07/27 03:19:13;;;;;;;4.20;3.90;;;16.50;99.90;;;;;;491110;241;27935;-69
2021/07/27 03:21:19;;;;;;;3.70;3.40;;;;;;;;;;491107;240;28776;-70
2021/07/27 03:23:21;;;;;;;5.07;4.00;;;;;;;;;;491133;241;26375;-69
2021/07/27 03:25:24;;;;;;;4.47;3.87;;;;;;;;;;491115;241;27417;-71
2021/07/27 03:27:27;;;;;;;3.47;3.17;;;;;;;;;;491137;241;26994;-72
2021/07/27 03:29:29;;;;;;;3.63;3.30;;;;;;;;;;491057;241;27873;-71
2021/07/27 03:31:32;;;;;;;4.10;3.67;;;;;;;;;;491141;241;27840;-71
2021/07/27 03:33:35;;;;;;;4.33;3.93;;;;;;;;;;491119;241;26284;-72
2021/07/27 03:35:38;;;;;;;4.50;3.70;;;;;;;;;;491120;241;26364;-71
2021/07/27 03:37:41;;;;;;;4.57;4.17;;;;;;;;;;491109;241;26377;-72
2021/07/27 03:39:43;;;;;;;4.40;4.00;;;;;;;;;;491105;241;26723;-69
2021/07/27 03:41:46;;;;;;;4.27;3.87;;;;;;;;;;491103;241;27938;-70
2021/07/27 03:43:50;;;;;;;5.00;4.50;;;;;;;;;;491102;241;26348;-69
2021/07/27 03:45:53;;;;;;;4.40;4.00;;;;;;;;;;491105;241;26284;-69
2021/07/27 03:47:55;;;;;;;6.50;4.23;;;;;;;;;;491134;241;26723;-69
2021/07/27 03:49:58;;;;;;;4.77;4.00;;;;;;;;;;491114;241;28014;-69
2021/07/27 03:52:00;;;;;;;4.60;4.20;;;;;;;;;;491111;241;26754;-69
2021/07/27 03:54:03;;;;;;;5.10;4.43;;;;;;;;;;491093;241;27986;-71
2021/07/27 03:56:05;;;;;;;4.97;4.57;;;16.20;99.90;;;;;;491107;241;26252;-71
2021/07/27 03:58:08;;;;;;;4.87;4.47;;;;;;;;;;491106;240;27444;-69
2021/07/27 04:00:10;;;;;;;4.37;4.00;;;;;;;;;;491095;241;27496;-71
2021/07/27 04:02:13;;;;;;;5.30;4.60;;;;;;;;;;491113;241;27417;-71
2021/07/27 04:04:19;;;;;;;4.77;3.63;;;16.00;99.90;;;;;;491111;241;26263;-69
2021/07/27 04:06:21;;;;;;;4.70;4.30;;;;;;;;;;491057;242;27488;-71
2021/07/27 04:08:23;;;;;;;4.37;3.97;;;;;;;;;;491107;241;26252;-71
2021/07/27 04:10:27;;;;;;;5.10;4.30;;;;;;;;;;491092;241;27384;-71
2021/07/27 04:12:30;;;;;;;5.57;5.00;;;;;;;;;;491104;241;26290;-72
2021/07/27 04:14:32;;;;;;;4.47;4.07;;;;;;;;;;491109;241;26248;-71
2021/07/27 04:16:34;;;;;;;4.40;4.00;;;;;;;;;;491115;237;27476;-69
2021/07/27 04:18:36;;;;;;;5.00;4.07;;;;;;;;;;491126;241;27482;-69
2021/07/27 04:20:38;;;;;;;5.80;4.53;;;;;;;;;;491101;241;27391;-69
2021/07/27 04:22:40;;;;;;;4.60;3.93;;;15.80;99.90;;;;;;491128;241;27404;-70
2021/07/27 04:24:42;;;;;;;4.47;4.07;;;;;;;;;;491101;240;27963;-69
2021/07/27 04:26:45;;;;;;;4.83;4.17;;;;;;;;;;491111;241;27412;-71
2021/07/27 04:28:46;;;;;;;4.63;4.03;;;15.80;99.90;;;;;;491102;241;27483;-69
2021/07/27 04:30:48;;;;;;;4.30;3.90;;;;;;;;;;491111;241;28770;-69
2021/07/27 04:32:50;;;;;;;4.40;4.00;;;;;;;;;;491113;241;27488;-69
2021/07/27 04:34:52;;;;;;;4.83;4.30;;;15.80;99.90;;;;;;491101;241;27925;-69
2021/07/27 04:36:55;;;;;;;5.10;4.60;;;;;;;;;;491107;241;27373;-69
2021/07/27 04:38:57;;;;;;;4.93;4.43;;;;;;;;;;491118;241;26299;-69
2021/07/27 04:40:59;;;;;;;4.90;4.40;;;;;;;;;;491099;241;27424;-69
2021/07/27 04:43:02;;;;;;;4.47;4.07;;;;;;;;;;491098;241;27425;-69
2021/07/27 04:45:04;;;;;;;4.10;3.70;;;;;;;;;;491111;241;27607;-69
2021/07/27 04:47:06;;;;;;;5.53;4.77;;;;;;;;;;491052;241;27428;-71
2021/07/27 04:49:08;;;;;;;5.67;4.67;;;;;;;;;;491097;236;27432;-69
2021/07/27 04:51:10;;;;;;;4.90;4.50;;;;;;;;;;491081;241;27544;-69
2021/07/27 04:53:13;;;;;;;5.30;4.30;;;;;;;;;;491094;241;27433;-70
2021/07/27 04:55:14;;;;;;;4.37;3.97;;;;;;;;;;491045;241;27423;-72
2021/07/27 04:57:16;;;;;;;5.03;4.53;;;;;;;;;;491104;241;27974;-69
2021/07/27 04:59:17;;;;;;;4.60;4.20;;;16.10;99.90;;;;;;491089;241;27924;-71
2021/07/27 05:01:18;;;;;;;4.57;4.17;;;16.20;99.90;;;;;;491093;241;29177;-69
2021/07/27 05:03:20;;;;;;;4.50;4.10;;;16.30;99.90;;;;;;491103;241;28790;-69
2021/07/27 05:05:21;;;;;;;4.50;4.10;;;16.40;99.90;;;;;;491116;241;28854;-69
2021/07/27 05:07:22;;;;;;;3.90;3.60;;;16.50;99.90;;;;;;491136;240;28890;-70
2021/07/27 05:09:23;;;;;;;4.00;3.70;;;16.60;99.90;;;;;;491138;240;28858;-69
2021/07/27 05:11:25;;;;;;;4.37;3.97;;;16.70;99.90;;;;;;491013;240;28847;-71
2021/07/27 05:13:26;;;;;;;5.40;3.80;;;16.70;99.90;;;;;;491129;241;28910;-71
2021/07/27 05:15:27;;;;;;;4.40;3.90;;;16.80;99.90;;;;;;491123;240;28816;-72
2021/07/27 05:17:28;;;;;;;5.47;4.70;;;16.80;99.90;;;;;;491122;241;28830;-72
2021/07/27 05:19:30;;;;;;;5.40;4.27;;;16.90;99.90;;;;;;491131;240;28918;-71
2021/07/27 05:21:31;;;;;;;4.20;3.80;;;16.90;99.90;;;;;;491069;241;29776;-69
2021/07/27 05:23:32;;;;;;;4.40;4.00;;;17.00;99.90;;;;;;491131;240;29318;-69
2021/07/27 05:25:33;;;;;;;4.70;4.30;;;17.00;99.90;;;;;;491163;240;29339;-69
2021/07/27 05:27:35;;;;;;;4.73;4.30;;;17.10;99.90;;;;;;491155;240;29297;-70
2021/07/27 05:29:36;;;;;;;4.77;4.37;;;17.20;99.90;;;;;;491139;241;28863;-70
2021/07/27 05:31:37;;;;;;;4.63;4.23;;;17.20;99.90;;;;;;491112;241;28867;-69
2021/07/27 05:33:38;;;;;;;4.70;4.30;;;17.30;99.90;;;;;;491114;241;28898;-70
2021/07/27 05:35:40;;;;;;;6.50;4.20;;;17.40;99.90;;;;;;491127;241;28866;-69
2021/07/27 05:37:41;;;;;;;5.10;4.60;;;17.40;99.90;;;;;;491119;241;28858;-70
2021/07/27 05:39:42;;;;;;;6.67;4.93;;;17.50;99.90;;;;;;491134;240;28888;-69
2021/07/27 05:41:43;;;;;;;5.40;4.60;;;17.50;99.90;;;;;;491099;241;28811;-68
2021/07/27 05:43:45;;;;;;;5.20;4.70;;;17.50;99.90;;;;;;491135;240;28727;-71
2021/07/27 05:45:46;;;;;;;6.00;4.40;;;17.50;99.90;;;;;;491121;241;29242;-71
2021/07/27 05:47:47;;;;;;;6.70;4.60;;;17.50;99.90;;;;;;491115;241;29356;-72
2021/07/27 05:49:48;;;;;;;6.30;4.47;;;17.50;99.90;;;;;;491105;240;29357;-69
2021/07/27 05:51:50;;;;;;;5.00;4.57;;;17.50;99.90;;;;;;491121;240;30055;-69
2021/07/27 05:53:51;;;;;;;4.33;3.93;;;17.40;99.90;;;;;;491120;241;28907;-69
2021/07/27 05:55:52;;;;;;;6.13;4.70;;;17.40;99.90;;;;;;491127;241;28874;-70
2021/07/27 05:57:53;;;;;;;5.20;4.47;;;17.50;99.90;;;;;;491077;240;28719;-69
2021/07/27 05:59:55;;;;;;;7.13;4.80;;;17.50;99.90;;;;;;491123;240;28850;-70
2021/07/27 06:01:56;;;;;;;4.67;4.27;;;17.60;99.90;;;;;;491063;241;28856;-72
2021/07/27 06:03:57;;;;;;;4.63;4.23;;;17.70;99.90;;;;;;491108;240;28878;-71
2021/07/27 06:05:59;;;;;;;5.90;5.07;;;17.70;99.90;;;;;;491104;241;28750;-71
2021/07/27 06:08:00;;;;;;;5.07;4.60;;;17.80;99.90;;;;;;491118;240;28842;-72
2021/07/27 06:10:01;;;;;;;5.20;4.40;;;17.70;99.90;;;;;;491112;241;28854;-71
2021/07/27 06:12:02;;;;;;;4.70;4.30;;;17.70;99.90;;;;;;491101;241;29350;-71
2021/07/27 06:14:09;;;;;;;4.77;4.37;;;17.80;99.90;;;;;;491104;241;29290;-71
2021/07/27 06:16:11;;;;;;;4.97;4.53;;;17.80;99.90;;;;;;491117;240;28759;-71
2021/07/27 06:18:12;;;;;;;5.13;4.63;;;17.80;99.90;;;;;;491113;240;28728;-71
2021/07/27 06:20:13;;;;;;;5.40;4.57;;;17.80;99.90;;;;;;491105;240;28850;-71
2021/07/27 06:22:14;;;;;;;5.30;4.40;;;17.90;99.90;;;;;;491072;241;28848;-71
2021/07/27 06:24:17;;;;;;;6.70;4.50;;;18.00;99.90;;;;;;491095;241;28750;-71
2021/07/27 06:26:17;;;;;;;4.50;4.10;;;18.10;99.90;;;;;;491054;242;28858;-71
2021/07/27 06:28:18;;;;;;;5.30;4.80;;;18.20;99.90;;;;;;491115;241;29368;-71
2021/07/27 06:30:19;;;;;;;5.07;4.50;;;18.30;99.90;;;;;;491112;241;29223;-71
2021/07/27 06:32:21;;;;;;;4.70;4.30;;;18.30;99.90;;;;;;491112;241;29432;-71
2021/07/27 06:34:22;;;;;;;4.80;4.30;;;18.40;99.90;;;;;;491080;240;29055;-71
2021/07/27 06:36:23;;;;;;;4.60;4.20;;;18.40;99.90;;;;;;491106;240;28747;-71
2021/07/27 06:38:25;;;;;;;5.60;4.97;;;18.50;99.90;;;;;;491121;240;28795;-71
2021/07/27 06:40:26;;;;;;;5.30;4.80;;;18.50;99.90;;;;;;491105;240;28923;-71
2021/07/27 06:42:27;;;;;;;5.73;5.20;;;18.50;99.90;;;;;;491112;241;28784;-72
2021/07/27 06:44:28;;;;;;;5.50;5.00;;;18.30;99.90;;;;;;491099;240;28948;-71
2021/07/27 06:46:29;;;;;;;5.73;4.20;;;18.40;99.90;;;;;;491111;241;28940;-71
2021/07/27 06:48:31;;;;;;;4.50;4.10;;;18.40;99.90;;;;;;491120;241;28789;-72
2021/07/27 06:50:32;;;;;;;4.97;4.53;;;18.40;99.90;;;;;;491130;240;28931;-72
2021/07/27 06:52:33;;;;;;;4.77;4.37;;;18.40;99.90;;;;;;491138;241;29283;-71
2021/07/27 06:54:34;;;;;;;5.30;4.57;;;18.40;99.90;;;;;;491132;240;29417;-70
2021/07/27 06:56:37;;;;;;;4.70;4.30;;;18.40;99.90;;;;;;491121;241;29235;-71
2021/07/27 06:58:37;;;;;;;5.10;4.60;;;18.50;99.90;;;;;;491030;242;29443;-71
2021/07/27 07:00:41;;;;;;;5.00;4.27;;;18.60;99.90;;;;;;491123;240;28991;-71
2021/07/27 07:02:42;;;;;;;4.40;4.00;;;18.60;99.90;;;;;;491099;241;28755;-71
2021/07/27 07:04:43;;;;;;;4.40;4.00;;;18.60;99.90;;;;;;491093;240;28716;-71
2021/07/27 07:06:45;;;;;;;4.67;4.27;;;18.60;99.90;;;;;;491120;240;28774;-71
2021/07/27 07:08:47;;;;;;;4.17;3.80;;;18.70;99.90;;;;;;491139;240;28759;-71
2021/07/27 07:10:47;;;;;;;4.07;3.70;;;18.70;99.90;;;;;;491028;242;28833;-71
2021/07/27 07:12:48;;;;;;;4.47;4.07;;;18.80;99.90;;;;;;491129;241;28858;-71
2021/07/27 07:14:50;;;;;;;3.60;3.37;;;18.90;99.90;;;;;;491106;241;29293;-71
2021/07/27 07:16:51;;;;;;;3.90;3.47;;;19.00;99.90;;;;;;491104;241;29307;-71
2021/07/27 07:18:52;;;;;;;4.47;4.07;;;19.00;99.90;;;;;;491124;241;29241;-70
2021/07/27 07:20:53;;;;;;;5.97;3.70;;;19.00;99.90;;;;;;491106;240;28837;-69
2021/07/27 07:22:55;;;;;;;4.37;3.97;;;19.10;99.90;;;;;;491103;240;28760;-70
2021/07/27 07:24:56;;;;;;;4.43;4.10;;;19.10;99.90;;;;;;491105;240;28714;-70
2021/07/27 07:26:57;;;;;;;4.33;4.03;;;19.10;99.90;;;;;;490851;240;28964;-70
2021/07/27 07:28:58;;;;;;;4.50;4.00;;;19.20;99.90;;;;;;491118;241;28759;-72
2021/07/27 07:31:00;;;;;;;5.00;4.50;;;19.30;99.90;;;;;;491124;240;28838;-72
2021/07/27 07:33:01;;;;;;;5.33;4.83;;;19.40;99.90;;;;;;491101;240;28750;-72
2021/07/27 07:35:04;;;;;;;5.00;4.60;;;19.50;99.90;;;;;;491094;241;28731;-72
2021/07/27 07:37:06;;;;;;;5.30;4.80;;;19.50;99.90;;;;;;491020;241;28869;-71
2021/07/27 07:39:05;;;;;;;5.50;5.00;;;19.60;99.90;;;;;;490915;242;29326;-71
2021/07/27 07:41:06;;;;;;;4.60;4.13;;;19.60;99.90;;;;;;491092;241;29353;-71
2021/07/27 07:43:07;;;;;;;4.90;4.50;;;19.60;99.90;;;;;;491090;240;29222;-71
2021/07/27 07:45:08;;;;;;;5.00;4.50;;;19.70;99.90;;;;;;491088;241;28989;-71
2021/07/27 07:47:10;;;;;;;5.40;4.23;;;19.80;99.90;;;;;;491086;241;28735;-71
2021/07/27 07:49:11;;;;;;;4.83;4.33;;;19.90;99.90;;;;;;491094;240;28858;-71
2021/07/27 07:51:12;;;;;;;4.70;4.27;;;19.90;99.90;;;;;;491105;241;28718;-71
2021/07/27 07:53:13;;;;;;;4.97;4.47;;;19.90;99.90;;;;;;491086;240;28894;-71
2021/07/27 07:55:15;;;;;;;5.00;4.50;;;19.90;99.90;;;;;;491127;240;28826;-71
2021/07/27 07:57:16;;;;;;;5.87;5.27;;;20.10;99.90;;;;;;491113;241;28731;-72
2021/07/27 07:59:17;;;;;;;5.23;4.57;;;20.10;99.90;;;;;;491103;240;28755;-71
2021/07/27 08:01:18;;;;;;;7.00;4.70;;;20.10;99.90;;;;;;491108;241;28946;-71
2021/07/27 08:03:20;;;;;;;4.90;4.50;;;20.10;99.90;;;;;;491078;241;29335;-71
2021/07/27 08:05:21;;;;;;;5.20;4.70;;;20.30;99.90;;;;;;491096;240;29953;-71
2021/07/27 08:07:22;;;;;;;6.50;5.00;;;20.30;99.90;;;;;;491096;241;29288;-71
2021/07/27 08:09:23;;;;;;;5.40;4.90;;;20.30;99.90;;;;;;491098;240;29233;-71
2021/07/27 08:11:25;;;;;;;5.60;5.10;;;20.40;99.90;;;;;;491114;241;28905;-71
2021/07/27 08:13:26;;;;;;;5.67;4.63;;;20.50;99.90;;;;;;491119;240;28791;-71
2021/07/27 08:15:27;;;;;;;4.83;4.43;;;20.60;99.90;;;;;;491069;241;28806;-70
2021/07/27 08:17:28;;;;;;;5.47;4.97;;;20.80;99.90;;;;;;491115;241;28757;-71
2021/07/27 08:19:31;;;;;;;5.00;4.60;;;20.90;99.90;;;;;;491097;240;28767;-71
2021/07/27 08:21:31;;;;;;;5.47;4.97;;;21.00;99.90;;;;;;491053;240;28725;-71
2021/07/27 08:23:32;;;;;;;4.80;4.40;;;21.00;99.90;;;;;;491107;241;28781;-71
2021/07/27 08:25:33;;;;;;;5.73;5.00;;;21.00;99.90;;;;;;491108;241;28783;-71
2021/07/27 08:27:35;;;;;;;5.03;4.63;;;21.10;99.90;;;;;;491114;241;29407;-71
2021/07/27 08:29:36;;;;;;;6.80;5.23;;;21.10;99.90;;;;;;491129;241;29210;-71
2021/07/27 08:31:40;;;;;;;5.87;5.37;;;;;;;;;;491119;241;29406;-71
2021/07/27 08:33:41;;;;;;;5.23;4.73;;;21.10;99.90;;;;;;491077;241;26401;-71
2021/07/27 08:35:42;;;;;;;8.40;4.70;;;21.20;99.90;;;;;;491105;241;29262;-71
2021/07/27 08:37:43;;;;;;;5.80;5.20;;;21.10;99.90;;;;;;491104;241;29197;-71
2021/07/27 08:39:44;;;;;;;4.90;4.50;;;21.10;99.90;;;;;;491082;241;29414;-70
2021/07/27 08:41:46;;;;;;;5.53;5.03;;;21.10;99.90;;;;;;491105;241;29285;-71
2021/07/27 08:43:47;;;;;;;6.10;5.13;;;21.20;99.90;;;;;;491097;241;28817;-71
2021/07/27 08:45:48;;;;;;;5.43;4.93;;;21.30;99.90;;;;;;491104;241;28838;-71
2021/07/27 08:47:49;;;;;;;7.23;5.47;;;21.30;99.90;;;;;;491088;241;28850;-71
2021/07/27 08:49:51;;;;;;;5.23;4.80;;;21.40;99.90;;;;;;491057;241;28935;-71
2021/07/27 08:51:52;;;;;;;6.03;5.43;;;21.40;99.90;;;;;;491110;241;28794;-71
2021/07/27 08:53:53;;;;;;;4.53;4.13;;;21.50;99.90;;;;;;491094;241;28762;-71
2021/07/27 08:55:56;;;;;;;5.17;4.47;;;21.60;99.90;;;;;;491081;241;28901;-71
2021/07/27 08:57:56;;;;;;;5.57;5.07;;;21.50;99.90;;;;;;490974;241;28712;-71
2021/07/27 08:59:57;;;;;;;5.50;5.00;;;21.30;99.90;;;;;;491081;241;28771;-69
2021/07/27 09:01:58;;;;;;;6.57;5.57;;;21.20;99.90;;;;;;491035;241;29191;-71
2021/07/27 09:03:59;;;;;;;5.70;5.20;;;21.30;99.90;;;;;;491057;241;29360;-71
2021/07/27 09:06:01;;;;;;;6.20;5.60;;;21.40;99.90;;;;;;491066;241;29254;-71
2021/07/27 09:08:02;;;;;;;5.90;5.30;;;21.30;99.90;;;;;;491076;241;28712;-71
2021/07/27 09:10:03;;;;;;;6.33;5.73;;;21.30;99.90;;;;;;491090;241;28791;-71
2021/07/27 09:12:09;;;;;;;6.17;5.57;;;21.30;99.90;;;;;;491095;241;28787;-71
2021/07/27 09:14:06;;;;;;;6.13;5.53;;;21.30;99.90;;;;;;490751;242;28755;-71
2021/07/27 09:16:07;;;;;;;6.03;5.43;;;21.30;99.90;;;;;;491098;241;28818;-72
2021/07/27 09:18:08;;;;;;;6.10;5.30;;;21.40;99.90;;;;;;491102;241;28724;-71
2021/07/27 09:20:09;;;;;;;8.30;5.07;;;21.50;99.90;;;;;;491116;241;28784;-71
2021/07/27 09:22:11;;;;;;;6.30;5.70;;;21.50;99.90;;;;;;491107;237;28728;-72
2021/07/27 09:24:12;;;;;;;7.20;5.73;;;21.50;99.90;;;;;;491091;241;28816;-69
2021/07/27 09:26:13;;;;;;;7.03;5.57;;;21.40;99.90;;;;;;491110;241;29255;-72
2021/07/27 09:28:14;;;;;;;6.17;5.57;;;21.50;99.90;;;;;;491105;241;29271;-72
2021/07/27 09:30:16;;;;;;;5.80;5.30;;;21.60;99.90;;;;;;491083;241;29342;-71
2021/07/27 09:32:17;;;;;;;6.00;5.40;;;21.60;99.90;;;;;;491096;241;28817;-71
2021/07/27 09:34:18;;;;;;;8.73;5.50;;;21.70;99.90;;;;;;491097;241;28812;-71
2021/07/27 09:36:19;;;;;;;6.70;5.80;;;21.70;99.90;;;;;;491102;241;28848;-71
2021/07/27 09:38:21;;;;;;;6.93;5.67;;;21.60;99.90;;;;;;491104;241;28828;-71
2021/07/27 09:40:22;;;;;;;6.20;5.60;;;21.60;99.90;;;;;;491081;241;28752;-71
2021/07/27 09:42:23;;;;;;;6.73;5.50;;;21.60;99.90;;;;;;491109;241;28737;-70
2021/07/27 09:44:24;;;;;;;6.23;5.60;;;21.60;99.90;;;;;;491063;241;28828;-71
2021/07/27 09:46:26;;;;;;;5.80;5.20;;;21.70;99.90;;;;;;491102;241;28945;-72
2021/07/27 09:48:27;;;;;;;6.43;5.83;;;21.80;99.90;;;;;;491086;241;28771;-71
2021/07/27 09:50:28;;;;;;;6.40;5.90;;;21.70;99.90;;;;;;491104;241;29391;-70
2021/07/27 09:52:29;;;;;;;6.37;5.77;;;21.70;99.90;;;;;;491134;241;29334;-70
2021/07/27 09:54:31;;;;;;;5.97;5.47;;;21.80;99.90;;;;;;491095;241;29438;-71
2021/07/27 09:56:32;;;;;;;6.37;5.77;;;21.80;99.90;;;;;;491114;241;28862;-71
2021/07/27 09:58:33;;;;;;;6.83;6.20;;;21.90;99.90;;;;;;491117;241;28832;-71
2021/07/27 10:00:34;;;;;;;7.17;5.93;;;21.90;99.90;;;;;;491102;241;28927;-71
2021/07/27 10:02:36;;;;;;;6.43;5.70;;;21.90;99.90;;;;;;491100;240;28855;-71
2021/07/27 10:04:37;;;;;;;7.37;6.60;;;21.90;99.90;;;;;;491093;241;28825;-71
2021/07/27 10:06:39;;;;;;;7.23;6.53;;;21.90;99.90;;;;;;491106;241;28854;-72
2021/07/27 10:08:41;;;;;;;7.23;6.23;;;21.80;99.90;;;;;;491109;241;28888;-71
2021/07/27 10:10:43;;;;;;;7.03;5.77;;;21.80;99.90;;;;;;491075;241;28860;-72
2021/07/27 10:12:42;;;;;;;6.20;5.57;;;21.60;99.90;;;;;;490958;242;28769;-71
2021/07/27 10:14:44;;;;;;;7.07;6.33;;;21.70;99.90;;;;;;491129;240;29323;-71
2021/07/27 10:16:45;;;;;;;7.60;6.90;;;21.70;99.90;;;;;;491112;240;29318;-71
2021/07/27 10:18:46;;;;;;;7.33;6.63;;;21.60;99.90;;;;;;491116;241;29402;-71
2021/07/27 10:20:47;;;;;;;6.40;5.80;;;21.60;99.90;;;;;;491122;241;28896;-71
2021/07/27 10:22:48;;;;;;;7.33;6.63;;;21.60;99.90;;;;;;491119;241;28864;-71
2021/07/27 10:24:50;;;;;;;7.50;5.70;;;21.60;99.90;;;;;;491057;241;28765;-71
2021/07/27 10:26:51;;;;;;;8.17;6.70;;;21.60;99.90;;;;;;491054;241;28930;-71
2021/07/27 10:28:52;;;;;;;6.27;5.67;;;21.70;99.90;;;;;;491122;240;28928;-71
2021/07/27 10:30:53;;;;;;;6.50;5.90;;;21.70;99.90;;;;;;491063;240;28856;-71
2021/07/27 10:32:55;;;;;;;6.13;5.60;;;21.90;99.90;;;;;;491076;241;28814;-71
2021/07/27 10:34:56;;;;;;;6.60;5.67;;;22.00;99.90;;;;;;490966;240;28720;-71
2021/07/27 10:36:57;;;;;;;5.37;4.90;;;21.90;99.90;;;;;;490975;241;28856;-71
2021/07/27 10:38:58;;;;;;;6.03;5.30;;;21.90;99.90;;;;;;490984;237;29300;-71
2021/07/27 10:41:00;;;;;;;6.73;6.13;;;21.80;99.90;;;;;;491007;241;29350;-71
2021/07/27 10:43:03;;;;;;;6.80;6.20;;;21.80;99.90;;;;;;491122;241;29559;-71
2021/07/27 10:45:02;;;;;;;7.10;6.17;;;21.80;99.90;;;;;;490956;242;28844;-71
2021/07/27 10:47:03;;;;;;;6.37;5.77;;;21.70;99.90;;;;;;491126;241;28752;-71
2021/07/27 10:49:05;;;;;;;6.53;5.93;;;21.80;99.90;;;;;;491122;241;28831;-71
2021/07/27 10:51:06;;;;;;;6.40;5.80;;;21.80;99.90;;;;;;491115;241;28963;-70
2021/07/27 10:53:10;;;;;;;6.40;5.77;;;21.90;99.90;;;;;;491127;240;28806;-71
2021/07/27 10:55:08;;;;;;;6.70;6.10;;;21.90;99.90;;;;;;490959;242;28931;-70
2021/07/27 10:57:10;;;;;;;6.50;5.83;;;21.90;99.90;;;;;;491110;241;28788;-71
2021/07/27 10:59:11;;;;;;;6.73;6.13;;;21.90;99.90;;;;;;491093;241;28903;-71
2021/07/27 11:01:12;;;;;;;6.93;6.27;;;22.00;99.90;;;;;;491110;240;28768;-71
2021/07/27 11:03:13;;;;;;;6.20;5.60;;;22.00;99.90;;;;;;491098;241;29346;-70
2021/07/27 11:05:15;;;;;;;6.40;5.80;;;22.00;99.90;;;;;;491102;241;29210;-71
2021/07/27 11:07:16;;;;;;;8.03;6.23;;;22.10;99.90;;;;;;491136;240;29342;-70
2021/07/27 11:09:17;;;;;;;6.10;5.50;;;22.00;99.90;;;;;;491122;240;28910;-70
2021/07/27 11:11:19;;;;;;;7.30;5.83;;;22.10;99.90;;;;;;491114;240;28755;-71
2021/07/27 11:13:20;;;;;;;6.60;6.00;;;22.20;99.90;;;;;;491117;241;28879;-71
2021/07/27 11:15:21;;;;;;;6.67;6.07;;;22.20;99.90;;;;;;491089;241;28755;-71
2021/07/27 11:17:22;;;;;;;6.53;5.93;;;22.20;99.90;;;;;;491103;240;28756;-70
2021/07/27 11:19:24;;;;;;;7.00;6.30;;;22.20;99.90;;;;;;491101;241;28847;-71
2021/07/27 11:21:25;;;;;;;6.97;5.70;;;22.20;99.90;;;;;;491121;241;28796;-71